sensor_id;sensor_type;location;lat;lon;timestamp;temperature;humidity
40516;DHT22;26216;53.724;9.898;2022-08-03T00:00:46;23.10;72.80
40516;DHT22;26216;53.724;9.898;2022-08-03T00:03:11;23.10;72.70
40516;DHT22;26216;53.724;9.898;2022-08-03T00:05:37;23.10;72.70
40516;DHT22;26216;53.724;9.898;2022-08-03T00:08:04;23.10;72.80
40516;DHT22;26216;53.724;9.898;2022-08-03T00:10:30;23.00;72.80
40516;DHT22;26216;53.724;9.898;2022-08-03T00:12:56;23.00;72.90
40516;DHT22;26216;53.724;9.898;2022-08-03T00:15:22;22.90;72.90
40516;DHT22;26216;53.724;9.898;2022-08-03T00:17:48;22.90;72.90
40516;DHT22;26216;53.724;9.898;2022-08-03T00:20:13;22.90;73.00
40516;DHT22;26216;53.724;9.898;2022-08-03T00:22:39;22.80;73.00
40516;DHT22;26216;53.724;9.898;2022-08-03T00:25:05;22.80;73.00
40516;DHT22;26216;53.724;9.898;2022-08-03T00:27:31;22.70;73.10
40516;DHT22;26216;53.724;9.898;2022-08-03T00:29:58;22.70;73.10
40516;DHT22;26216;53.724;9.898;2022-08-03T00:32:23;22.60;73.00
40516;DHT22;26216;53.724;9.898;2022-08-03T00:34:49;22.60;73.10
40516;DHT22;26216;53.724;9.898;2022-08-03T00:37:15;22.60;73.20
40516;DHT22;26216;53.724;9.898;2022-08-03T00:39:41;22.50;73.20
40516;DHT22;26216;53.724;9.898;2022-08-03T00:42:10;22.50;73.40
40516;DHT22;26216;53.724;9.898;2022-08-03T00:44:40;22.50;73.40
40516;DHT22;26216;53.724;9.898;2022-08-03T00:47:06;22.50;73.70
40516;DHT22;26216;53.724;9.898;2022-08-03T00:49:32;22.40;73.60
40516;DHT22;26216;53.724;9.898;2022-08-03T00:51:59;22.40;73.70
40516;DHT22;26216;53.724;9.898;2022-08-03T00:54:25;22.40;73.80
40516;DHT22;26216;53.724;9.898;2022-08-03T00:56:52;22.30;73.80
40516;DHT22;26216;53.724;9.898;2022-08-03T00:59:18;22.30;73.90
40516;DHT22;26216;53.724;9.898;2022-08-03T01:01:44;22.20;74.00
40516;DHT22;26216;53.724;9.898;2022-08-03T01:04:10;22.20;74.10
40516;DHT22;26216;53.724;9.898;2022-08-03T01:06:49;22.20;74.20
40516;DHT22;26216;53.724;9.898;2022-08-03T01:12:28;22.10;74.90
40516;DHT22;26216;53.724;9.898;2022-08-03T01:20:24;22.00;74.80
40516;DHT22;26216;53.724;9.898;2022-08-03T01:23:23;22.00;74.80
40516;DHT22;26216;53.724;9.898;2022-08-03T01:26:59;22.00;75.40
40516;DHT22;26216;53.724;9.898;2022-08-03T01:32:02;21.90;75.20
40516;DHT22;26216;53.724;9.898;2022-08-03T01:34:38;21.90;75.00
40516;DHT22;26216;53.724;9.898;2022-08-03T01:37:06;21.90;75.50
40516;DHT22;26216;53.724;9.898;2022-08-03T01:39:36;21.80;75.40
40516;DHT22;26216;53.724;9.898;2022-08-03T01:42:04;21.80;75.40
40516;DHT22;26216;53.724;9.898;2022-08-03T01:44:36;21.80;75.40
40516;DHT22;26216;53.724;9.898;2022-08-03T01:47:03;21.80;75.50
40516;DHT22;26216;53.724;9.898;2022-08-03T01:49:34;21.70;75.30
40516;DHT22;26216;53.724;9.898;2022-08-03T01:52:02;21.70;75.50
40516;DHT22;26216;53.724;9.898;2022-08-03T01:54:30;21.70;76.10
40516;DHT22;26216;53.724;9.898;2022-08-03T01:56:58;21.70;75.50
40516;DHT22;26216;53.724;9.898;2022-08-03T01:59:25;21.70;76.10
40516;DHT22;26216;53.724;9.898;2022-08-03T02:01:53;21.70;75.60
40516;DHT22;26216;53.724;9.898;2022-08-03T02:04:19;21.70;75.70
40516;DHT22;26216;53.724;9.898;2022-08-03T02:06:48;21.70;75.70
40516;DHT22;26216;53.724;9.898;2022-08-03T02:09:15;21.60;75.70
40516;DHT22;26216;53.724;9.898;2022-08-03T02:11:42;21.60;75.70
40516;DHT22;26216;53.724;9.898;2022-08-03T02:14:09;21.60;75.80
40516;DHT22;26216;53.724;9.898;2022-08-03T02:16:35;21.60;75.70
40516;DHT22;26216;53.724;9.898;2022-08-03T02:19:04;21.60;75.80
40516;DHT22;26216;53.724;9.898;2022-08-03T02:21:35;21.60;76.10
40516;DHT22;26216;53.724;9.898;2022-08-03T02:24:02;21.60;75.90
40516;DHT22;26216;53.724;9.898;2022-08-03T02:26:29;21.50;75.80
40516;DHT22;26216;53.724;9.898;2022-08-03T02:28:59;21.50;75.80
40516;DHT22;26216;53.724;9.898;2022-08-03T02:31:30;21.50;76.00
40516;DHT22;26216;53.724;9.898;2022-08-03T02:34:01;21.50;75.90
40516;DHT22;26216;53.724;9.898;2022-08-03T02:36:28;21.50;75.90
40516;DHT22;26216;53.724;9.898;2022-08-03T02:38:58;21.50;75.90
40516;DHT22;26216;53.724;9.898;2022-08-03T02:41:35;21.40;75.90
40516;DHT22;26216;53.724;9.898;2022-08-03T02:44:06;21.40;76.20
40516;DHT22;26216;53.724;9.898;2022-08-03T02:46:36;21.40;76.00
40516;DHT22;26216;53.724;9.898;2022-08-03T02:49:04;21.40;76.00
40516;DHT22;26216;53.724;9.898;2022-08-03T02:51:35;21.40;76.10
40516;DHT22;26216;53.724;9.898;2022-08-03T02:54:03;21.40;76.10
40516;DHT22;26216;53.724;9.898;2022-08-03T02:56:30;21.30;76.10
40516;DHT22;26216;53.724;9.898;2022-08-03T02:58:57;21.30;75.90
40516;DHT22;26216;53.724;9.898;2022-08-03T03:01:26;21.30;76.20
40516;DHT22;26216;53.724;9.898;2022-08-03T03:03:54;21.30;76.10
40516;DHT22;26216;53.724;9.898;2022-08-03T03:06:22;21.30;76.30
40516;DHT22;26216;53.724;9.898;2022-08-03T03:08:49;21.20;76.20
40516;DHT22;26216;53.724;9.898;2022-08-03T03:11:17;21.20;76.30
40516;DHT22;26216;53.724;9.898;2022-08-03T03:13:44;21.20;76.50
40516;DHT22;26216;53.724;9.898;2022-08-03T03:16:12;21.20;76.60
40516;DHT22;26216;53.724;9.898;2022-08-03T03:18:39;21.20;76.70
40516;DHT22;26216;53.724;9.898;2022-08-03T03:21:07;21.10;76.70
40516;DHT22;26216;53.724;9.898;2022-08-03T03:23:39;21.10;76.80
40516;DHT22;26216;53.724;9.898;2022-08-03T03:26:06;21.10;76.80
40516;DHT22;26216;53.724;9.898;2022-08-03T03:28:33;21.00;76.80
40516;DHT22;26216;53.724;9.898;2022-08-03T03:31:03;21.00;76.90
40516;DHT22;26216;53.724;9.898;2022-08-03T03:33:30;21.00;76.90
40516;DHT22;26216;53.724;9.898;2022-08-03T03:35:57;20.90;76.90
40516;DHT22;26216;53.724;9.898;2022-08-03T03:38:23;20.90;77.00
40516;DHT22;26216;53.724;9.898;2022-08-03T03:40:49;20.90;77.00
40516;DHT22;26216;53.724;9.898;2022-08-03T03:43:15;20.90;77.10
40516;DHT22;26216;53.724;9.898;2022-08-03T03:45:43;20.80;77.10
40516;DHT22;26216;53.724;9.898;2022-08-03T03:48:10;20.80;77.10
40516;DHT22;26216;53.724;9.898;2022-08-03T03:50:36;20.80;77.20
40516;DHT22;26216;53.724;9.898;2022-08-03T03:53:08;20.80;77.40
40516;DHT22;26216;53.724;9.898;2022-08-03T03:55:38;20.80;77.60
40516;DHT22;26216;53.724;9.898;2022-08-03T03:58:05;20.70;77.40
40516;DHT22;26216;53.724;9.898;2022-08-03T04:00:32;20.70;77.50
40516;DHT22;26216;53.724;9.898;2022-08-03T04:02:59;20.70;77.60
40516;DHT22;26216;53.724;9.898;2022-08-03T04:05:24;20.70;77.60
40516;DHT22;26216;53.724;9.898;2022-08-03T04:08:13;20.70;77.50
40516;DHT22;26216;53.724;9.898;2022-08-03T04:13:54;20.70;77.80
40516;DHT22;26216;53.724;9.898;2022-08-03T04:16:26;20.70;77.80
40516;DHT22;26216;53.724;9.898;2022-08-03T04:18:58;20.70;77.70
40516;DHT22;26216;53.724;9.898;2022-08-03T04:21:26;20.70;78.00
40516;DHT22;26216;53.724;9.898;2022-08-03T04:23:59;20.70;78.00
40516;DHT22;26216;53.724;9.898;2022-08-03T04:26:29;20.70;78.20
40516;DHT22;26216;53.724;9.898;2022-08-03T04:28:57;20.80;78.50
40516;DHT22;26216;53.724;9.898;2022-08-03T04:31:25;20.80;78.30
40516;DHT22;26216;53.724;9.898;2022-08-03T04:33:52;20.80;78.50
40516;DHT22;26216;53.724;9.898;2022-08-03T04:36:22;20.80;78.70
40516;DHT22;26216;53.724;9.898;2022-08-03T04:39:30;20.80;78.70
40516;DHT22;26216;53.724;9.898;2022-08-03T04:41:57;20.80;79.40
40516;DHT22;26216;53.724;9.898;2022-08-03T04:44:26;20.90;79.00
40516;DHT22;26216;53.724;9.898;2022-08-03T04:46:54;20.90;79.40
40516;DHT22;26216;53.724;9.898;2022-08-03T04:49:20;20.90;79.40
40516;DHT22;26216;53.724;9.898;2022-08-03T04:51:48;21.00;79.60
40516;DHT22;26216;53.724;9.898;2022-08-03T04:54:15;21.00;79.60
40516;DHT22;26216;53.724;9.898;2022-08-03T04:56:42;21.10;79.80
40516;DHT22;26216;53.724;9.898;2022-08-03T04:59:08;21.20;80.10
40516;DHT22;26216;53.724;9.898;2022-08-03T05:01:35;21.30;80.20
40516;DHT22;26216;53.724;9.898;2022-08-03T05:04:01;21.40;80.20
40516;DHT22;26216;53.724;9.898;2022-08-03T05:06:27;21.50;80.20
40516;DHT22;26216;53.724;9.898;2022-08-03T05:08:53;21.60;80.40
40516;DHT22;26216;53.724;9.898;2022-08-03T05:11:19;21.70;80.20
40516;DHT22;26216;53.724;9.898;2022-08-03T05:13:47;21.80;80.30
40516;DHT22;26216;53.724;9.898;2022-08-03T05:16:13;21.90;80.40
40516;DHT22;26216;53.724;9.898;2022-08-03T05:18:42;22.00;80.40
40516;DHT22;26216;53.724;9.898;2022-08-03T05:21:09;22.10;80.60
40516;DHT22;26216;53.724;9.898;2022-08-03T05:23:35;22.20;80.40
40516;DHT22;26216;53.724;9.898;2022-08-03T05:26:02;22.40;80.40
40516;DHT22;26216;53.724;9.898;2022-08-03T05:28:28;22.50;80.50
40516;DHT22;26216;53.724;9.898;2022-08-03T05:30:54;22.60;80.50
40516;DHT22;26216;53.724;9.898;2022-08-03T05:33:20;22.70;80.40
40516;DHT22;26216;53.724;9.898;2022-08-03T05:35:45;22.90;80.40
40516;DHT22;26216;53.724;9.898;2022-08-03T05:38:11;23.00;80.30
40516;DHT22;26216;53.724;9.898;2022-08-03T05:40:37;23.10;79.90
40516;DHT22;26216;53.724;9.898;2022-08-03T05:43:03;23.30;79.80
40516;DHT22;26216;53.724;9.898;2022-08-03T05:45:29;23.40;79.70
40516;DHT22;26216;53.724;9.898;2022-08-03T05:47:55;23.50;79.50
40516;DHT22;26216;53.724;9.898;2022-08-03T05:50:21;23.60;79.40
40516;DHT22;26216;53.724;9.898;2022-08-03T05:52:47;23.80;79.30
40516;DHT22;26216;53.724;9.898;2022-08-03T05:55:13;23.90;79.20
40516;DHT22;26216;53.724;9.898;2022-08-03T05:57:40;24.10;79.10
40516;DHT22;26216;53.724;9.898;2022-08-03T06:00:10;24.20;78.90
40516;DHT22;26216;53.724;9.898;2022-08-03T06:02:37;24.40;78.60
40516;DHT22;26216;53.724;9.898;2022-08-03T06:05:03;24.40;78.50
40516;DHT22;26216;53.724;9.898;2022-08-03T06:07:29;24.60;78.20
40516;DHT22;26216;53.724;9.898;2022-08-03T06:09:55;24.60;78.10
40516;DHT22;26216;53.724;9.898;2022-08-03T06:12:21;24.80;78.00
40516;DHT22;26216;53.724;9.898;2022-08-03T06:14:47;24.90;77.70
40516;DHT22;26216;53.724;9.898;2022-08-03T06:17:13;25.00;77.60
40516;DHT22;26216;53.724;9.898;2022-08-03T06:19:38;25.10;77.70
40516;DHT22;26216;53.724;9.898;2022-08-03T06:22:04;25.20;77.50
40516;DHT22;26216;53.724;9.898;2022-08-03T06:24:30;25.30;77.30
40516;DHT22;26216;53.724;9.898;2022-08-03T06:26:57;25.50;77.30
40516;DHT22;26216;53.724;9.898;2022-08-03T06:29:23;25.60;77.00
40516;DHT22;26216;53.724;9.898;2022-08-03T06:31:49;25.60;76.50
40516;DHT22;26216;53.724;9.898;2022-08-03T06:34:15;25.80;76.90
40516;DHT22;26216;53.724;9.898;2022-08-03T06:36:41;25.90;76.50
40516;DHT22;26216;53.724;9.898;2022-08-03T06:39:07;26.00;76.50
40516;DHT22;26216;53.724;9.898;2022-08-03T06:41:33;26.10;76.30
40516;DHT22;26216;53.724;9.898;2022-08-03T06:43:59;26.20;76.20
40516;DHT22;26216;53.724;9.898;2022-08-03T06:46:25;26.30;75.80
40516;DHT22;26216;53.724;9.898;2022-08-03T06:48:51;26.50;76.10
40516;DHT22;26216;53.724;9.898;2022-08-03T06:51:17;26.60;76.00
40516;DHT22;26216;53.724;9.898;2022-08-03T06:53:43;26.70;75.50
40516;DHT22;26216;53.724;9.898;2022-08-03T06:56:09;26.90;75.40
40516;DHT22;26216;53.724;9.898;2022-08-03T06:58:35;27.00;75.50
40516;DHT22;26216;53.724;9.898;2022-08-03T07:01:01;27.10;75.10
40516;DHT22;26216;53.724;9.898;2022-08-03T07:03:27;27.20;74.40
40516;DHT22;26216;53.724;9.898;2022-08-03T07:05:53;27.30;73.80
40516;DHT22;26216;53.724;9.898;2022-08-03T07:08:19;27.40;73.80
40516;DHT22;26216;53.724;9.898;2022-08-03T07:10:45;27.50;73.20
40516;DHT22;26216;53.724;9.898;2022-08-03T07:13:11;27.60;72.80
40516;DHT22;26216;53.724;9.898;2022-08-03T07:15:38;27.70;72.80
40516;DHT22;26216;53.724;9.898;2022-08-03T07:18:05;27.80;72.60
40516;DHT22;26216;53.724;9.898;2022-08-03T07:20:31;27.90;71.60
40516;DHT22;26216;53.724;9.898;2022-08-03T07:22:58;28.00;71.60
40516;DHT22;26216;53.724;9.898;2022-08-03T07:25:24;28.10;71.10
40516;DHT22;26216;53.724;9.898;2022-08-03T07:27:50;28.20;70.30
40516;DHT22;26216;53.724;9.898;2022-08-03T07:30:16;28.20;70.60
40516;DHT22;26216;53.724;9.898;2022-08-03T07:32:42;28.30;70.40
40516;DHT22;26216;53.724;9.898;2022-08-03T07:35:09;28.30;69.30
40516;DHT22;26216;53.724;9.898;2022-08-03T07:37:36;28.40;69.70
40516;DHT22;26216;53.724;9.898;2022-08-03T07:40:03;28.40;69.90
40516;DHT22;26216;53.724;9.898;2022-08-03T07:42:29;28.50;69.00
40516;DHT22;26216;53.724;9.898;2022-08-03T07:44:56;28.50;68.30
40516;DHT22;26216;53.724;9.898;2022-08-03T07:47:24;28.60;69.30
40516;DHT22;26216;53.724;9.898;2022-08-03T07:49:51;28.60;69.60
40516;DHT22;26216;53.724;9.898;2022-08-03T07:52:17;28.60;69.40
40516;DHT22;26216;53.724;9.898;2022-08-03T07:55:03;28.80;69.80
40516;DHT22;26216;53.724;9.898;2022-08-03T07:57:31;28.80;69.40
40516;DHT22;26216;53.724;9.898;2022-08-03T07:59:56;28.90;70.10
40516;DHT22;26216;53.724;9.898;2022-08-03T08:02:23;29.00;69.20
40516;DHT22;26216;53.724;9.898;2022-08-03T08:04:49;29.10;68.90
40516;DHT22;26216;53.724;9.898;2022-08-03T08:07:15;29.20;68.60
40516;DHT22;26216;53.724;9.898;2022-08-03T08:09:42;29.20;66.70
40516;DHT22;26216;53.724;9.898;2022-08-03T08:12:08;29.20;66.30
40516;DHT22;26216;53.724;9.898;2022-08-03T08:14:35;29.30;66.60
40516;DHT22;26216;53.724;9.898;2022-08-03T08:17:01;29.30;66.90
40516;DHT22;26216;53.724;9.898;2022-08-03T08:19:27;29.30;66.50
40516;DHT22;26216;53.724;9.898;2022-08-03T08:21:52;29.40;66.20
40516;DHT22;26216;53.724;9.898;2022-08-03T08:24:18;29.40;66.30
40516;DHT22;26216;53.724;9.898;2022-08-03T08:26:44;29.40;66.20
40516;DHT22;26216;53.724;9.898;2022-08-03T08:29:10;29.50;66.60
40516;DHT22;26216;53.724;9.898;2022-08-03T08:31:36;29.50;66.50
40516;DHT22;26216;53.724;9.898;2022-08-03T08:34:02;29.60;66.60
40516;DHT22;26216;53.724;9.898;2022-08-03T08:36:34;29.60;64.80
40516;DHT22;26216;53.724;9.898;2022-08-03T08:39:00;29.60;65.50
40516;DHT22;26216;53.724;9.898;2022-08-03T08:41:26;29.70;65.10
40516;DHT22;26216;53.724;9.898;2022-08-03T08:43:53;29.80;65.40
40516;DHT22;26216;53.724;9.898;2022-08-03T08:46:19;29.80;65.80
40516;DHT22;26216;53.724;9.898;2022-08-03T08:48:47;29.90;66.30
40516;DHT22;26216;53.724;9.898;2022-08-03T08:51:14;29.90;65.40
40516;DHT22;26216;53.724;9.898;2022-08-03T08:53:46;30.00;65.40
40516;DHT22;26216;53.724;9.898;2022-08-03T08:56:14;30.10;66.00
40516;DHT22;26216;53.724;9.898;2022-08-03T08:58:46;30.10;64.80
40516;DHT22;26216;53.724;9.898;2022-08-03T09:01:13;30.20;65.30
40516;DHT22;26216;53.724;9.898;2022-08-03T09:03:40;30.20;64.60
40516;DHT22;26216;53.724;9.898;2022-08-03T09:06:06;30.30;64.70
40516;DHT22;26216;53.724;9.898;2022-08-03T09:08:32;30.30;64.80
40516;DHT22;26216;53.724;9.898;2022-08-03T09:10:58;30.50;64.50
40516;DHT22;26216;53.724;9.898;2022-08-03T09:13:25;30.50;63.70
40516;DHT22;26216;53.724;9.898;2022-08-03T09:16:11;30.60;63.50
40516;DHT22;26216;53.724;9.898;2022-08-03T09:18:37;30.60;63.00
40516;DHT22;26216;53.724;9.898;2022-08-03T09:21:17;30.70;63.80
40516;DHT22;26216;53.724;9.898;2022-08-03T09:23:50;30.80;63.60
40516;DHT22;26216;53.724;9.898;2022-08-03T09:26:25;30.90;63.70
40516;DHT22;26216;53.724;9.898;2022-08-03T09:29:20;31.00;61.90
40516;DHT22;26216;53.724;9.898;2022-08-03T09:31:47;31.10;61.90
40516;DHT22;26216;53.724;9.898;2022-08-03T09:34:15;31.20;63.00
40516;DHT22;26216;53.724;9.898;2022-08-03T09:36:42;31.30;62.20
40516;DHT22;26216;53.724;9.898;2022-08-03T09:39:11;31.30;62.90
40516;DHT22;26216;53.724;9.898;2022-08-03T09:41:41;31.40;62.70
40516;DHT22;26216;53.724;9.898;2022-08-03T09:44:08;31.50;63.10
40516;DHT22;26216;53.724;9.898;2022-08-03T09:46:50;31.60;62.40
40516;DHT22;26216;53.724;9.898;2022-08-03T09:49:17;31.70;62.90
40516;DHT22;26216;53.724;9.898;2022-08-03T09:51:43;31.90;62.70
40516;DHT22;26216;53.724;9.898;2022-08-03T09:54:09;31.90;62.70
40516;DHT22;26216;53.724;9.898;2022-08-03T09:56:45;32.00;61.90
40516;DHT22;26216;53.724;9.898;2022-08-03T09:59:15;32.10;60.80
40516;DHT22;26216;53.724;9.898;2022-08-03T10:01:47;32.20;61.20
40516;DHT22;26216;53.724;9.898;2022-08-03T10:04:15;32.20;61.30
40516;DHT22;26216;53.724;9.898;2022-08-03T10:07:02;32.30;61.40
40516;DHT22;26216;53.724;9.898;2022-08-03T10:09:29;32.40;61.50
40516;DHT22;26216;53.724;9.898;2022-08-03T10:11:55;32.40;61.30
40516;DHT22;26216;53.724;9.898;2022-08-03T10:14:22;32.40;60.90
40516;DHT22;26216;53.724;9.898;2022-08-03T10:16:48;32.50;61.10
40516;DHT22;26216;53.724;9.898;2022-08-03T10:19:15;32.50;61.60
40516;DHT22;26216;53.724;9.898;2022-08-03T10:21:48;32.60;62.00
40516;DHT22;26216;53.724;9.898;2022-08-03T10:24:18;32.60;60.30
40516;DHT22;26216;53.724;9.898;2022-08-03T10:26:46;32.80;61.40
40516;DHT22;26216;53.724;9.898;2022-08-03T10:29:20;32.80;61.00
40516;DHT22;26216;53.724;9.898;2022-08-03T10:31:46;32.90;60.70
40516;DHT22;26216;53.724;9.898;2022-08-03T10:34:23;33.00;60.70
40516;DHT22;26216;53.724;9.898;2022-08-03T10:36:51;33.00;59.90
40516;DHT22;26216;53.724;9.898;2022-08-03T10:39:23;33.10;60.40
40516;DHT22;26216;53.724;9.898;2022-08-03T10:41:50;33.10;59.90
40516;DHT22;26216;53.724;9.898;2022-08-03T10:44:18;33.20;59.70
40516;DHT22;26216;53.724;9.898;2022-08-03T10:46:46;33.20;59.80
40516;DHT22;26216;53.724;9.898;2022-08-03T10:49:17;33.20;59.70
40516;DHT22;26216;53.724;9.898;2022-08-03T10:51:44;33.30;59.60
40516;DHT22;26216;53.724;9.898;2022-08-03T10:54:42;33.40;60.10
40516;DHT22;26216;53.724;9.898;2022-08-03T10:57:50;33.50;59.10
40516;DHT22;26216;53.724;9.898;2022-08-03T11:00:20;33.50;57.70
40516;DHT22;26216;53.724;9.898;2022-08-03T11:03:04;33.60;57.50
40516;DHT22;26216;53.724;9.898;2022-08-03T11:05:39;33.60;57.70
40516;DHT22;26216;53.724;9.898;2022-08-03T11:08:28;33.50;58.10
40516;DHT22;26216;53.724;9.898;2022-08-03T11:11:39;33.60;58.80
40516;DHT22;26216;53.724;9.898;2022-08-03T11:14:08;33.60;57.90
40516;DHT22;26216;53.724;9.898;2022-08-03T11:17:16;33.70;58.00
40516;DHT22;26216;53.724;9.898;2022-08-03T11:19:45;33.70;57.80
40516;DHT22;26216;53.724;9.898;2022-08-03T11:22:12;33.70;57.10
40516;DHT22;26216;53.724;9.898;2022-08-03T11:30:07;33.70;56.60
40516;DHT22;26216;53.724;9.898;2022-08-03T11:35:20;33.70;57.20
40516;DHT22;26216;53.724;9.898;2022-08-03T11:40:47;33.80;57.00
40516;DHT22;26216;53.724;9.898;2022-08-03T11:48:37;34.00;56.80
40516;DHT22;26216;53.724;9.898;2022-08-03T11:51:06;34.00;56.70
40516;DHT22;26216;53.724;9.898;2022-08-03T11:53:33;34.00;56.80
40516;DHT22;26216;53.724;9.898;2022-08-03T11:56:00;34.10;57.10
40516;DHT22;26216;53.724;9.898;2022-08-03T11:58:27;34.10;56.30
40516;DHT22;26216;53.724;9.898;2022-08-03T12:01:05;34.10;55.60
40516;DHT22;26216;53.724;9.898;2022-08-03T12:03:33;34.10;55.50
40516;DHT22;26216;53.724;9.898;2022-08-03T12:06:00;34.10;55.30
40516;DHT22;26216;53.724;9.898;2022-08-03T12:10:54;34.10;55.00
40516;DHT22;26216;53.724;9.898;2022-08-03T12:13:21;34.20;55.50
40516;DHT22;26216;53.724;9.898;2022-08-03T12:15:52;34.20;55.30
40516;DHT22;26216;53.724;9.898;2022-08-03T12:18:19;34.20;54.40
40516;DHT22;26216;53.724;9.898;2022-08-03T12:20:46;34.20;55.30
40516;DHT22;26216;53.724;9.898;2022-08-03T12:23:12;34.30;55.20
40516;DHT22;26216;53.724;9.898;2022-08-03T12:25:40;34.30;53.40
40516;DHT22;26216;53.724;9.898;2022-08-03T12:28:08;34.30;54.00
40516;DHT22;26216;53.724;9.898;2022-08-03T12:30:35;34.30;54.30
40516;DHT22;26216;53.724;9.898;2022-08-03T12:33:15;34.30;54.80
40516;DHT22;26216;53.724;9.898;2022-08-03T12:35:42;34.30;55.70
40516;DHT22;26216;53.724;9.898;2022-08-03T12:38:09;34.40;54.80
40516;DHT22;26216;53.724;9.898;2022-08-03T12:40:35;34.40;53.50
40516;DHT22;26216;53.724;9.898;2022-08-03T12:43:04;34.30;53.20
40516;DHT22;26216;53.724;9.898;2022-08-03T12:45:34;34.30;52.40
40516;DHT22;26216;53.724;9.898;2022-08-03T12:48:01;34.30;53.70
40516;DHT22;26216;53.724;9.898;2022-08-03T12:50:31;34.30;53.30
40516;DHT22;26216;53.724;9.898;2022-08-03T12:52:59;34.30;53.70
40516;DHT22;26216;53.724;9.898;2022-08-03T12:55:25;34.30;52.30
40516;DHT22;26216;53.724;9.898;2022-08-03T12:58:06;34.30;52.00
40516;DHT22;26216;53.724;9.898;2022-08-03T13:00:32;34.20;51.50
40516;DHT22;26216;53.724;9.898;2022-08-03T13:03:07;34.20;52.40
40516;DHT22;26216;53.724;9.898;2022-08-03T13:05:43;34.20;52.60
40516;DHT22;26216;53.724;9.898;2022-08-03T13:08:23;34.20;52.40
40516;DHT22;26216;53.724;9.898;2022-08-03T13:10:50;34.20;53.00
40516;DHT22;26216;53.724;9.898;2022-08-03T13:13:16;34.30;53.50
40516;DHT22;26216;53.724;9.898;2022-08-03T13:15:42;34.30;54.10
40516;DHT22;26216;53.724;9.898;2022-08-03T13:18:08;34.40;53.00
40516;DHT22;26216;53.724;9.898;2022-08-03T13:20:35;34.50;51.50
40516;DHT22;26216;53.724;9.898;2022-08-03T13:23:01;34.50;51.60
40516;DHT22;26216;53.724;9.898;2022-08-03T13:25:27;34.50;52.20
40516;DHT22;26216;53.724;9.898;2022-08-03T13:27:53;34.50;52.70
40516;DHT22;26216;53.724;9.898;2022-08-03T13:30:18;34.50;53.30
40516;DHT22;26216;53.724;9.898;2022-08-03T13:32:44;34.50;52.90
40516;DHT22;26216;53.724;9.898;2022-08-03T13:35:11;34.60;52.80
40516;DHT22;26216;53.724;9.898;2022-08-03T13:37:37;34.70;50.80
40516;DHT22;26216;53.724;9.898;2022-08-03T13:40:05;34.70;52.60
40516;DHT22;26216;53.724;9.898;2022-08-03T13:42:32;34.70;52.60
40516;DHT22;26216;53.724;9.898;2022-08-03T13:44:59;34.70;52.40
40516;DHT22;26216;53.724;9.898;2022-08-03T13:47:26;34.80;52.90
40516;DHT22;26216;53.724;9.898;2022-08-03T13:49:52;34.90;53.10
40516;DHT22;26216;53.724;9.898;2022-08-03T13:52:19;35.00;53.10
40516;DHT22;26216;53.724;9.898;2022-08-03T13:54:45;35.00;53.00
40516;DHT22;26216;53.724;9.898;2022-08-03T13:57:14;35.10;52.40
40516;DHT22;26216;53.724;9.898;2022-08-03T13:59:43;35.10;52.40
40516;DHT22;26216;53.724;9.898;2022-08-03T14:02:08;35.20;53.10
40516;DHT22;26216;53.724;9.898;2022-08-03T14:04:34;35.20;53.20
40516;DHT22;26216;53.724;9.898;2022-08-03T14:07:00;35.30;53.10
40516;DHT22;26216;53.724;9.898;2022-08-03T14:09:26;35.30;52.80
40516;DHT22;26216;53.724;9.898;2022-08-03T14:11:55;35.40;52.80
40516;DHT22;26216;53.724;9.898;2022-08-03T14:14:21;35.50;53.10
40516;DHT22;26216;53.724;9.898;2022-08-03T14:16:47;35.60;53.30
40516;DHT22;26216;53.724;9.898;2022-08-03T14:19:13;35.60;52.50
40516;DHT22;26216;53.724;9.898;2022-08-03T14:21:40;35.70;52.70
40516;DHT22;26216;53.724;9.898;2022-08-03T14:24:08;35.80;52.60
40516;DHT22;26216;53.724;9.898;2022-08-03T14:26:37;35.90;52.00
40516;DHT22;26216;53.724;9.898;2022-08-03T14:29:03;35.90;50.60
40516;DHT22;26216;53.724;9.898;2022-08-03T14:31:35;35.90;51.00
40516;DHT22;26216;53.724;9.898;2022-08-03T14:34:01;35.90;50.10
40516;DHT22;26216;53.724;9.898;2022-08-03T14:36:27;35.80;50.90
40516;DHT22;26216;53.724;9.898;2022-08-03T14:38:56;35.80;49.90
40516;DHT22;26216;53.724;9.898;2022-08-03T14:41:22;35.80;50.70
40516;DHT22;26216;53.724;9.898;2022-08-03T14:43:48;35.80;49.50
40516;DHT22;26216;53.724;9.898;2022-08-03T14:46:14;35.70;49.90
40516;DHT22;26216;53.724;9.898;2022-08-03T14:48:40;35.70;50.40
40516;DHT22;26216;53.724;9.898;2022-08-03T14:51:06;35.70;50.80
40516;DHT22;26216;53.724;9.898;2022-08-03T14:53:33;35.60;50.80
40516;DHT22;26216;53.724;9.898;2022-08-03T14:55:59;35.70;50.60
40516;DHT22;26216;53.724;9.898;2022-08-03T14:58:25;35.70;50.70
40516;DHT22;26216;53.724;9.898;2022-08-03T15:00:53;35.70;49.70
40516;DHT22;26216;53.724;9.898;2022-08-03T15:03:20;35.70;49.40
40516;DHT22;26216;53.724;9.898;2022-08-03T15:05:50;35.70;49.30
40516;DHT22;26216;53.724;9.898;2022-08-03T15:08:21;35.70;50.20
40516;DHT22;26216;53.724;9.898;2022-08-03T15:10:47;35.70;50.00
40516;DHT22;26216;53.724;9.898;2022-08-03T15:13:14;35.70;49.50
40516;DHT22;26216;53.724;9.898;2022-08-03T15:15:40;35.80;50.70
40516;DHT22;26216;53.724;9.898;2022-08-03T15:18:06;35.90;51.00
40516;DHT22;26216;53.724;9.898;2022-08-03T15:20:32;36.10;50.90
40516;DHT22;26216;53.724;9.898;2022-08-03T15:22:58;36.10;50.60
40516;DHT22;26216;53.724;9.898;2022-08-03T15:25:24;36.30;50.60
40516;DHT22;26216;53.724;9.898;2022-08-03T15:27:50;36.40;50.10
40516;DHT22;26216;53.724;9.898;2022-08-03T15:30:16;36.40;49.80
40516;DHT22;26216;53.724;9.898;2022-08-03T15:32:42;36.40;49.40
40516;DHT22;26216;53.724;9.898;2022-08-03T15:35:08;36.40;49.50
40516;DHT22;26216;53.724;9.898;2022-08-03T15:37:34;36.40;49.30
40516;DHT22;26216;53.724;9.898;2022-08-03T15:40:00;36.40;50.70
40516;DHT22;26216;53.724;9.898;2022-08-03T15:42:29;36.40;49.60
40516;DHT22;26216;53.724;9.898;2022-08-03T15:44:55;36.40;49.50
40516;DHT22;26216;53.724;9.898;2022-08-03T15:47:21;36.50;49.50
40516;DHT22;26216;53.724;9.898;2022-08-03T15:49:47;36.60;50.30
40516;DHT22;26216;53.724;9.898;2022-08-03T15:52:13;36.70;50.90
40516;DHT22;26216;53.724;9.898;2022-08-03T15:54:39;36.90;50.90
40516;DHT22;26216;53.724;9.898;2022-08-03T15:57:07;37.10;50.30
40516;DHT22;26216;53.724;9.898;2022-08-03T15:59:33;37.20;48.20
40516;DHT22;26216;53.724;9.898;2022-08-03T16:01:59;37.40;48.80
40516;DHT22;26216;53.724;9.898;2022-08-03T16:04:25;37.40;48.10
40516;DHT22;26216;53.724;9.898;2022-08-03T16:06:51;37.60;47.80
40516;DHT22;26216;53.724;9.898;2022-08-03T16:09:17;37.60;47.30
40516;DHT22;26216;53.724;9.898;2022-08-03T16:11:44;37.70;47.90